createdAt,value
2018-09-01T00:01:37.518Z,16.30
2018-09-01T00:04:06.329Z,16.47
2018-09-01T00:06:35.827Z,16.70
2018-09-01T00:09:06.031Z,15.73
2018-09-01T00:11:34.728Z,14.70
2018-09-01T00:14:04.152Z,13.00
2018-09-01T00:16:33.076Z,15.33
2018-09-01T00:19:01.816Z,16.47
2018-09-01T00:21:31.475Z,17.40
2018-09-01T00:24:04.184Z,16.63
2018-09-01T00:26:33.087Z,17.07
2018-09-01T00:29:01.687Z,15.33
2018-09-01T00:31:30.696Z,14.57
2018-09-01T00:33:59.785Z,17.83
2018-09-01T00:36:29.453Z,15.57
2018-09-01T00:39:05.623Z,13.33
2018-09-01T00:41:34.800Z,16.27
2018-09-01T00:44:03.735Z,18.07
2018-09-01T00:46:33.157Z,15.80
2018-09-01T00:49:01.882Z,12.30
2018-09-01T00:51:30.838Z,14.37
2018-09-01T00:53:59.482Z,15.93
2018-09-01T00:56:28.974Z,15.17
2018-09-01T00:58:57.673Z,14.53
2018-09-01T01:01:26.362Z,13.67
2018-09-01T01:03:55.709Z,13.53
2018-09-01T01:06:24.768Z,17.83
2018-09-01T01:08:54.062Z,17.43
2018-09-01T01:11:22.891Z,16.73
2018-09-01T01:13:51.604Z,16.60
2018-09-01T01:16:20.293Z,12.90
2018-09-01T01:18:49.004Z,14.80
2018-09-01T01:21:18.892Z,16.03
2018-09-01T01:23:47.463Z,12.97
2018-09-01T01:26:17.056Z,13.77
2018-09-01T01:28:45.639Z,13.07
2018-09-01T01:31:16.174Z,15.97
2018-09-01T01:33:44.989Z,13.13
2018-09-01T01:36:13.748Z,13.60
2018-09-01T01:38:42.563Z,12.80
2018-09-01T01:41:11.792Z,12.93
2018-09-01T01:43:40.949Z,16.70
2018-09-01T01:46:09.508Z,16.83
2018-09-01T01:48:38.532Z,14.83
2018-09-01T01:51:07.976Z,11.43
2018-09-01T01:53:36.805Z,14.47
2018-09-01T01:56:06.021Z,14.07
2018-09-01T01:58:35.589Z,13.60
2018-09-01T02:01:04.168Z,13.07
2018-09-01T02:03:32.877Z,12.40
2018-09-01T02:06:09.727Z,10.80
2018-09-01T02:08:38.412Z,11.77
2018-09-01T02:11:07.323Z,13.43
2018-09-01T02:13:36.003Z,20.40
2018-09-01T02:16:05.464Z,11.17
2018-09-01T02:18:34.503Z,12.47
2018-09-01T02:21:03.146Z,11.87
2018-09-01T02:23:31.807Z,11.60
2018-09-01T02:26:00.472Z,10.33
2018-09-01T02:28:29.868Z,11.53
2018-09-01T02:30:58.648Z,12.23
2018-09-01T02:33:27.414Z,9.03
2018-09-01T02:35:56.229Z,7.60
2018-09-01T02:38:25.344Z,9.93
2018-09-01T02:40:54.688Z,7.47
2018-09-01T02:43:23.321Z,5.60
2018-09-01T02:45:51.868Z,8.53
2018-09-01T02:48:22.123Z,9.60
2018-09-01T02:50:51.319Z,8.50
2018-09-01T02:53:20.388Z,10.37
2018-09-01T02:55:49.132Z,8.33
2018-09-01T02:58:17.867Z,8.20
2018-09-01T03:00:46.756Z,7.20
2018-09-01T03:03:16.364Z,6.13
2018-09-01T03:05:45.152Z,6.10
2018-09-01T03:08:13.860Z,5.00
2018-09-01T03:10:42.472Z,7.13
2018-09-01T03:13:12.722Z,7.10
2018-09-01T03:15:41.916Z,4.47
2018-09-01T03:18:10.815Z,5.83
2018-09-01T03:20:39.899Z,5.47
2018-09-01T03:23:09.266Z,4.13
2018-09-01T03:25:38.720Z,6.30
2018-09-01T03:28:07.605Z,4.67
2018-09-01T03:30:36.463Z,5.73
2018-09-01T03:33:05.384Z,5.37
2018-09-01T03:35:33.947Z,5.30
2018-09-01T03:38:02.956Z,5.30
2018-09-01T03:40:31.853Z,3.57
2018-09-01T03:43:00.522Z,9.10
2018-09-01T03:45:30.457Z,5.03
2018-09-01T03:47:59.043Z,4.30
2018-09-01T03:50:27.865Z,3.73
2018-09-01T03:52:56.503Z,5.40
2018-09-01T03:55:25.180Z,5.03
2018-09-01T03:57:53.911Z,4.93
2018-09-01T04:00:26.683Z,4.93
2018-09-01T04:02:56.231Z,6.00
2018-09-01T04:05:24.834Z,4.30
2018-09-01T04:07:53.535Z,5.57
2018-09-01T04:10:23.392Z,4.10
2018-09-01T04:12:52.087Z,4.33
2018-09-01T04:15:20.746Z,4.90
2018-09-01T04:17:49.650Z,5.20
2018-09-01T04:20:19.195Z,8.40
2018-09-01T04:22:48.832Z,4.67
2018-09-01T04:25:17.393Z,4.23
2018-09-01T04:27:46.063Z,5.63
2018-09-01T04:30:15.322Z,3.20
2018-09-01T04:32:44.121Z,2.70
2018-09-01T04:35:13.130Z,5.00
2018-09-01T04:37:41.886Z,4.57
2018-09-01T04:40:11.473Z,4.07
2018-09-01T04:42:40.280Z,5.23
2018-09-01T04:45:12.031Z,4.87
2018-09-01T04:47:40.747Z,6.40
2018-09-01T04:50:09.715Z,5.03
2018-09-01T04:52:38.427Z,6.00
2018-09-01T04:55:07.267Z,5.77
2018-09-01T04:57:36.647Z,5.17
2018-09-01T05:00:05.900Z,12.10
2018-09-01T05:02:34.620Z,7.63
2018-09-01T05:05:04.393Z,5.20
2018-09-01T05:07:33.000Z,5.47
2018-09-01T05:10:02.919Z,5.80
2018-09-01T05:12:31.607Z,4.70
2018-09-01T05:15:00.292Z,6.50
2018-09-01T05:17:28.954Z,4.13
2018-09-01T05:19:57.492Z,3.73
2018-09-01T05:22:26.520Z,4.50
2018-09-01T05:24:56.206Z,4.50
2018-09-01T05:27:24.942Z,5.17
2018-09-01T05:29:53.855Z,6.63
2018-09-01T05:32:22.733Z,6.80
2018-09-01T05:34:51.417Z,5.40
2018-09-01T05:37:20.112Z,5.93
2018-09-01T05:39:49.585Z,5.60
2018-09-01T05:42:18.347Z,6.33
2018-09-01T05:44:46.955Z,7.90
2018-09-01T05:47:15.669Z,6.77
2018-09-01T05:49:44.382Z,5.37
2018-09-01T05:52:14.388Z,5.03
2018-09-01T05:54:43.155Z,5.23
2018-09-01T05:57:12.205Z,3.60
2018-09-01T05:59:41.109Z,4.13
2018-09-01T06:02:10.817Z,9.20
2018-09-01T06:04:39.507Z,10.23
2018-09-01T06:07:08.326Z,9.83
2018-09-01T06:09:37.655Z,9.37
2018-09-01T06:12:06.540Z,8.43
2018-09-01T06:14:36.227Z,9.23
2018-09-01T06:17:06.083Z,8.30
2018-09-01T06:19:34.701Z,6.40
2018-09-01T06:22:04.228Z,6.53
2018-09-01T06:24:33.121Z,10.33
2018-09-01T06:27:05.327Z,10.30
2018-09-01T06:29:34.010Z,9.47
2018-09-01T06:32:04.979Z,13.37
2018-09-01T06:34:33.883Z,8.13
2018-09-01T06:37:03.067Z,4.60
2018-09-01T06:39:31.832Z,5.67
2018-09-01T06:42:00.629Z,7.73
2018-09-01T06:44:30.326Z,38.63
2018-09-01T06:46:59.197Z,26.93
2018-09-01T06:49:27.888Z,25.60
2018-09-01T06:51:56.640Z,22.30
2018-09-01T06:54:25.260Z,23.93
2018-09-01T06:56:53.943Z,19.30
2018-09-01T06:59:23.564Z,13.07
2018-09-01T07:01:52.439Z,11.40
2018-09-01T07:04:21.355Z,9.70
2018-09-01T07:06:50.124Z,10.80
2018-09-01T07:09:18.819Z,7.40
2018-09-01T07:11:47.707Z,5.73
2018-09-01T07:14:16.384Z,5.33
2018-09-01T07:16:45.204Z,8.60
2018-09-01T07:22:16.364Z,6.50
2018-09-01T07:24:45.062Z,7.13
2018-09-01T07:27:13.596Z,6.93
2018-09-01T07:29:42.251Z,5.50
2018-09-01T07:32:10.894Z,7.37
2018-09-01T07:34:39.634Z,5.80
2018-09-01T07:37:08.999Z,7.03
2018-09-01T07:39:45.455Z,7.70
2018-09-01T07:42:14.059Z,5.60
2018-09-01T07:44:42.991Z,5.97
2018-09-01T07:47:12.217Z,5.97
2018-09-01T07:49:41.288Z,7.33
2018-09-01T07:52:09.965Z,6.63
2018-09-01T07:54:46.758Z,7.60
2018-09-01T07:57:16.452Z,7.50
2018-09-01T07:59:45.111Z,6.67
2018-09-01T08:02:13.971Z,7.37
2018-09-01T08:04:43.711Z,7.80
2018-09-01T08:07:13.924Z,8.40
2018-09-01T08:09:43.276Z,10.17
2018-09-01T08:12:12.178Z,12.53
2018-09-01T08:14:41.171Z,13.87
2018-09-01T08:17:10.348Z,10.43
2018-09-01T08:19:39.759Z,11.20
2018-09-01T08:22:10.604Z,10.63
2018-09-01T08:24:39.330Z,10.80
2018-09-01T08:27:07.868Z,8.87
2018-09-01T08:29:36.634Z,14.53
2018-09-01T08:32:06.265Z,13.07
2018-09-01T08:34:35.180Z,11.40
2018-09-01T08:37:04.369Z,13.37
2018-09-01T08:39:33.881Z,12.60
2018-09-01T08:42:02.711Z,12.90
2018-09-01T08:44:31.554Z,15.70
2018-09-01T08:47:00.977Z,18.00
2018-09-01T08:49:29.593Z,14.10
2018-09-01T08:51:58.294Z,18.27
2018-09-01T08:54:27.031Z,17.30
2018-09-01T08:56:55.643Z,15.30
2018-09-01T08:59:24.344Z,15.93
2018-09-01T09:01:53.445Z,17.10
2018-09-01T09:04:22.655Z,16.00
2018-09-01T09:06:52.872Z,18.73
2018-09-01T09:09:21.748Z,18.33
2018-09-01T09:11:50.693Z,19.67
2018-09-01T09:14:19.572Z,17.13
2018-09-01T09:16:48.520Z,17.23
2018-09-01T09:19:18.454Z,18.73
2018-09-01T09:21:48.068Z,17.53
2018-09-01T09:24:17.028Z,21.60
2018-09-01T09:26:45.604Z,21.10
2018-09-01T09:29:14.733Z,18.40
2018-09-01T09:31:43.565Z,18.73
2018-09-01T09:34:13.193Z,21.10
2018-09-01T09:36:41.793Z,17.23
2018-09-01T09:39:12.793Z,17.70
2018-09-01T09:41:41.828Z,19.70
2018-09-01T09:44:10.484Z,18.47
2018-09-01T09:46:39.521Z,16.83
2018-09-01T09:49:08.581Z,16.83
2018-09-01T09:51:37.590Z,18.50
2018-09-01T09:54:06.306Z,18.13
2018-09-01T09:56:35.735Z,18.60
2018-09-01T09:59:04.589Z,21.87
2018-09-01T10:01:39.891Z,20.20
2018-09-01T10:04:10.005Z,18.87
2018-09-01T10:06:39.308Z,18.20
2018-09-01T10:09:13.145Z,18.83
2018-09-01T10:11:44.265Z,16.80
2018-09-01T10:14:13.573Z,20.80
2018-09-01T10:16:42.653Z,17.03
2018-09-01T10:19:11.589Z,18.07
2018-09-01T10:21:40.417Z,18.60
2018-09-01T10:24:09.328Z,18.43
2018-09-01T10:26:38.530Z,18.20
2018-09-01T10:29:07.778Z,19.10
2018-09-01T10:31:36.571Z,19.40
2018-09-01T10:34:05.486Z,26.67
2018-09-01T10:36:34.376Z,19.80
2018-09-01T10:39:05.487Z,17.30
2018-09-01T10:41:34.591Z,18.50
2018-09-01T10:44:04.591Z,17.90
2018-09-01T10:46:33.275Z,20.17
2018-09-01T10:49:02.077Z,18.00
2018-09-01T10:51:31.858Z,19.13
2018-09-01T10:54:01.103Z,16.83
2018-09-01T10:56:30.012Z,14.90
2018-09-01T10:59:08.261Z,20.03
2018-09-01T11:01:45.940Z,15.80
2018-09-01T11:04:25.239Z,13.77
2018-09-01T11:06:55.111Z,14.90
2018-09-01T11:09:23.946Z,14.57
2018-09-01T11:11:52.709Z,14.10
2018-09-01T11:14:21.496Z,13.40
2018-09-01T11:16:50.181Z,11.47
2018-09-01T11:19:22.017Z,10.97
2018-09-01T11:22:03.048Z,12.17
2018-09-01T11:24:31.793Z,10.90
2018-09-01T11:27:00.545Z,10.03
2018-09-01T11:29:29.376Z,13.33
2018-09-01T11:31:58.668Z,12.37
2018-09-01T11:34:43.095Z,11.73
2018-09-01T11:37:12.001Z,10.83
2018-09-01T11:39:49.879Z,9.27
2018-09-01T11:42:27.666Z,14.00
2018-09-01T11:44:56.556Z,13.10
2018-09-01T11:47:25.413Z,12.20
2018-09-01T11:49:54.110Z,11.07
2018-09-01T11:52:24.019Z,13.37
2018-09-01T11:54:53.676Z,11.13
2018-09-01T11:57:23.858Z,11.10
2018-09-01T11:59:52.539Z,9.20
2018-09-01T12:02:21.312Z,13.80
2018-09-01T12:04:50.484Z,9.00
2018-09-01T12:07:20.123Z,11.47
2018-09-01T12:09:49.292Z,9.50
2018-09-01T12:12:18.208Z,12.00
2018-09-01T12:14:46.817Z,13.80
2018-09-01T12:17:15.575Z,12.67
2018-09-01T12:19:44.690Z,15.03
2018-09-01T12:22:14.193Z,14.80
2018-09-01T12:24:43.426Z,12.30
2018-09-01T12:27:13.581Z,13.57
2018-09-01T12:29:42.436Z,14.73
2018-09-01T12:32:11.083Z,8.70
2018-09-01T12:34:39.638Z,5.73
2018-09-01T12:37:08.358Z,4.90
2018-09-01T12:39:37.175Z,4.60
2018-09-01T12:42:06.495Z,5.80
2018-09-01T12:44:35.235Z,9.33
2018-09-01T12:47:04.000Z,6.10
2018-09-01T12:49:33.144Z,6.93
2018-09-01T12:52:01.777Z,6.40
2018-09-01T12:54:30.722Z,5.40
2018-09-01T12:56:59.635Z,7.10
2018-09-01T12:59:28.423Z,7.37
2018-09-01T13:02:08.181Z,6.00
2018-09-01T13:04:46.823Z,6.63
2018-09-01T13:07:24.786Z,5.33
2018-09-01T13:09:53.571Z,4.87
2018-09-01T13:12:22.271Z,4.03
2018-09-01T13:14:50.911Z,3.23
2018-09-01T13:17:19.602Z,3.93
2018-09-01T13:19:48.323Z,4.77
2018-09-01T13:22:17.588Z,5.20
2018-09-01T13:24:46.267Z,5.97
2018-09-01T13:27:15.374Z,4.70
2018-09-01T13:29:45.050Z,4.83
2018-09-01T13:32:14.624Z,5.53
2018-09-01T13:34:51.636Z,6.20
2018-09-01T13:37:28.101Z,5.47
2018-09-01T13:39:56.854Z,5.03
2018-09-01T13:42:25.704Z,3.60
2018-09-01T13:44:54.295Z,4.00
2018-09-01T13:47:23.067Z,4.90
2018-09-01T13:49:51.859Z,4.60
2018-09-01T13:52:20.580Z,3.83
2018-09-01T13:54:49.311Z,3.30
2018-09-01T13:57:18.054Z,3.70
2018-09-01T13:59:46.709Z,4.07
2018-09-01T14:02:15.387Z,4.43
2018-09-01T14:04:44.075Z,3.43
2018-09-01T14:07:13.231Z,3.03
2018-09-01T14:09:43.512Z,3.33
2018-09-01T14:12:12.163Z,2.80
2018-09-01T14:14:41.058Z,2.00
2018-09-01T14:17:09.997Z,4.30
2018-09-01T14:19:39.459Z,2.20
2018-09-01T14:22:08.603Z,1.80
2018-09-01T14:24:37.186Z,1.90
2018-09-01T14:27:06.145Z,1.97
2018-09-01T14:29:34.986Z,2.60
2018-09-01T14:32:03.683Z,2.90
2018-09-01T14:34:32.988Z,2.67
2018-09-01T14:37:01.766Z,3.90
2018-09-01T14:39:30.436Z,2.63
2018-09-01T14:41:59.647Z,2.13
2018-09-01T14:44:28.468Z,2.70
2018-09-01T14:46:58.776Z,3.40
2018-09-01T14:49:27.584Z,3.60
2018-09-01T14:51:56.237Z,2.40
2018-09-01T14:54:24.991Z,5.10
2018-09-01T14:56:54.831Z,2.87
2018-09-01T14:59:23.608Z,3.23
2018-09-01T15:01:52.416Z,4.23
2018-09-01T15:04:21.198Z,2.60
2018-09-01T15:06:51.054Z,2.70
2018-09-01T15:09:19.679Z,3.30
2018-09-01T15:11:48.385Z,2.70
2018-09-01T15:14:17.732Z,2.90
2018-09-01T15:16:46.356Z,3.53
2018-09-01T15:19:15.736Z,4.83
2018-09-01T15:21:44.609Z,4.13
2018-09-01T15:24:15.094Z,3.80
2018-09-01T15:26:45.412Z,3.83
2018-09-01T15:29:14.360Z,2.50
2018-09-01T15:31:43.385Z,3.73
2018-09-01T15:34:12.007Z,4.10
2018-09-01T15:36:40.803Z,3.70
2018-09-01T15:39:09.436Z,3.20
2018-09-01T15:41:39.928Z,5.80
2018-09-01T15:44:10.552Z,6.30
2018-09-01T15:46:39.412Z,4.73
2018-09-01T15:49:08.128Z,4.10
2018-09-01T15:51:37.135Z,5.77
2018-09-01T15:54:06.113Z,4.17
2018-09-01T15:56:35.937Z,8.10
2018-09-01T15:59:05.260Z,4.50
2018-09-01T16:01:34.567Z,5.20
2018-09-01T16:04:03.244Z,4.30
2018-09-01T16:06:31.978Z,3.67
2018-09-01T16:09:01.000Z,3.70
2018-09-01T16:11:29.780Z,3.47
2018-09-01T16:13:58.747Z,3.43
2018-09-01T16:16:27.477Z,2.70
2018-09-01T16:22:03.924Z,2.60
2018-09-01T16:24:32.628Z,3.20
2018-09-01T16:27:01.257Z,2.93
2018-09-01T16:29:29.923Z,3.97
2018-09-01T16:32:02.771Z,3.03
2018-09-01T16:34:31.460Z,2.90
2018-09-01T16:37:00.122Z,2.50
2018-09-01T16:39:29.802Z,3.50
2018-09-01T16:41:58.516Z,3.20
2018-09-01T16:44:27.144Z,2.63
2018-09-01T16:46:56.035Z,2.83
2018-09-01T16:49:24.719Z,2.63
2018-09-01T16:51:53.415Z,2.63
2018-09-01T16:54:22.172Z,3.33
2018-09-01T16:56:50.998Z,3.53
2018-09-01T16:59:19.679Z,4.20
2018-09-01T17:01:49.264Z,5.60
2018-09-01T17:04:18.502Z,3.00
2018-09-01T17:06:47.172Z,4.73
2018-09-01T17:09:16.543Z,3.87
2018-09-01T17:11:47.144Z,3.50
2018-09-01T17:14:15.895Z,3.77
2018-09-01T17:16:44.559Z,3.87
2018-09-01T17:19:13.253Z,7.10
2018-09-01T17:21:41.964Z,4.40
2018-09-01T17:24:10.667Z,4.40
2018-09-01T17:26:39.324Z,3.20
2018-09-01T17:29:08.811Z,3.70
2018-09-01T17:31:37.698Z,3.30
2018-09-01T17:34:06.616Z,3.73
2018-09-01T17:36:35.648Z,4.03
2018-09-01T17:39:07.412Z,4.40
2018-09-01T17:41:36.284Z,6.20
2018-09-01T17:44:05.215Z,5.10
2018-09-01T17:46:34.385Z,5.30
2018-09-01T17:49:03.304Z,12.13
2018-09-01T17:51:32.084Z,4.80
2018-09-01T17:54:00.787Z,6.77
2018-09-01T17:56:29.528Z,6.00
2018-09-01T17:58:58.168Z,6.90
2018-09-01T18:01:28.041Z,7.07
2018-09-01T18:03:56.754Z,9.63
2018-09-01T18:06:25.856Z,6.60
2018-09-01T18:08:55.171Z,7.80
2018-09-01T18:11:23.823Z,8.77
2018-09-01T18:13:52.812Z,8.40
2018-09-01T18:16:21.848Z,9.13
2018-09-01T18:18:50.676Z,6.13
2018-09-01T18:21:19.789Z,6.10
2018-09-01T18:23:48.391Z,7.90
2018-09-01T18:26:17.143Z,6.07
2018-09-01T18:28:46.075Z,7.20
2018-09-01T18:31:15.227Z,9.30
2018-09-01T18:33:44.292Z,9.47
2018-09-01T18:36:12.905Z,9.33
2018-09-01T18:38:41.605Z,10.13
2018-09-01T18:41:10.570Z,10.73
2018-09-01T18:43:39.116Z,10.17
2018-09-01T18:46:08.052Z,12.07
2018-09-01T18:48:36.768Z,10.00
2018-09-01T18:51:05.710Z,13.17
2018-09-01T18:53:35.775Z,13.23
2018-09-01T18:56:04.704Z,13.03
2018-09-01T18:58:33.570Z,15.47
2018-09-01T19:01:02.687Z,13.73
2018-09-01T19:03:31.945Z,17.40
2018-09-01T19:06:00.778Z,13.17
2018-09-01T19:08:29.503Z,12.57
2018-09-01T19:10:58.391Z,15.30
2018-09-01T19:13:27.443Z,14.40
2018-09-01T19:15:56.682Z,12.73
2018-09-01T19:18:25.653Z,11.10
2018-09-01T19:20:54.543Z,17.23
2018-09-01T19:23:23.609Z,14.17
2018-09-01T19:25:52.361Z,11.80
2018-09-01T19:28:21.067Z,12.20
2018-09-01T19:30:49.749Z,15.33
2018-09-01T19:33:19.845Z,16.50
2018-09-01T19:35:48.735Z,13.70
2018-09-01T19:38:18.071Z,12.40
2018-09-01T19:40:47.105Z,14.10
2018-09-01T19:43:16.003Z,11.60
2018-09-01T19:45:44.818Z,12.43
2018-09-01T19:48:13.575Z,15.47
2018-09-01T19:50:43.440Z,14.40
2018-09-01T19:53:12.419Z,12.60
2018-09-01T19:55:41.048Z,14.23
2018-09-01T19:58:10.413Z,12.67
2018-09-01T20:00:40.124Z,12.27
2018-09-01T20:03:10.064Z,13.20
2018-09-01T20:05:38.672Z,11.13
2018-09-01T20:08:08.821Z,12.70
2018-09-01T20:10:46.975Z,12.40
2018-09-01T20:13:26.157Z,12.83
2018-09-01T20:16:04.303Z,10.70
2018-09-01T20:18:32.922Z,9.83
2018-09-01T20:21:01.499Z,10.57
2018-09-01T20:23:30.765Z,12.93
2018-09-01T20:25:59.695Z,13.20
2018-09-01T20:28:28.626Z,11.50
2018-09-01T20:30:57.492Z,11.67
2018-09-01T20:33:27.659Z,9.83
2018-09-01T20:35:57.711Z,13.73
2018-09-01T20:38:28.259Z,11.40
2018-09-01T20:40:57.035Z,10.50
2018-09-01T20:43:26.615Z,8.60
2018-09-01T20:45:55.537Z,12.03
2018-09-01T20:48:24.672Z,10.90
2018-09-01T20:50:53.508Z,11.20
2018-09-01T20:53:22.187Z,14.13
2018-09-01T20:55:51.072Z,10.00
2018-09-01T20:58:20.399Z,10.30
2018-09-01T21:00:49.121Z,10.93
2018-09-01T21:03:18.075Z,9.60
2018-09-01T21:05:46.912Z,9.40
2018-09-01T21:08:16.066Z,8.37
2018-09-01T21:10:44.804Z,8.53
2018-09-01T21:13:13.717Z,9.63
2018-09-01T21:15:42.360Z,7.40
2018-09-01T21:18:11.220Z,9.73
2018-09-01T21:20:39.948Z,8.90
2018-09-01T21:23:09.911Z,7.10
2018-09-01T21:25:38.683Z,9.30
2018-09-01T21:28:21.881Z,11.10
2018-09-01T21:30:59.145Z,7.80
2018-09-01T21:33:35.953Z,9.47
2018-09-01T21:36:13.509Z,9.17
2018-09-01T21:38:55.988Z,8.60
2018-09-01T21:41:35.975Z,10.67
2018-09-01T21:44:04.884Z,8.33
2018-09-01T21:46:35.309Z,7.97
2018-09-01T21:49:04.492Z,8.03
2018-09-01T21:51:33.333Z,7.87
2018-09-01T21:54:02.095Z,9.57
2018-09-01T21:56:31.569Z,9.37
2018-09-01T21:59:00.447Z,6.27
2018-09-01T22:01:34.847Z,7.80
2018-09-01T22:04:03.556Z,7.47
2018-09-01T22:06:32.384Z,6.23
2018-09-01T22:09:02.203Z,5.50
2018-09-01T22:11:30.858Z,6.40
2018-09-01T22:13:59.654Z,8.30
2018-09-01T22:16:28.234Z,8.00
2018-09-01T22:21:51.329Z,7.83
2018-09-01T22:24:20.317Z,6.07
2018-09-01T22:26:48.980Z,8.40
2018-09-01T22:29:17.717Z,7.00
2018-09-01T22:31:47.184Z,8.20
2018-09-01T22:34:15.729Z,5.33
2018-09-01T22:36:44.624Z,6.67
2018-09-01T22:39:14.056Z,3.70
2018-09-01T22:41:51.197Z,3.77
2018-09-01T22:44:30.874Z,5.43
2018-09-01T22:47:14.333Z,3.67
2018-09-01T22:49:51.906Z,3.40
2018-09-01T22:52:21.314Z,4.10
2018-09-01T22:54:50.206Z,4.33
2018-09-01T22:57:19.041Z,4.73
2018-09-01T22:59:47.915Z,3.43
2018-09-01T23:02:17.035Z,3.90
2018-09-01T23:04:46.088Z,2.77
2018-09-01T23:07:15.011Z,3.53
2018-09-01T23:09:43.936Z,3.77
2018-09-01T23:12:12.482Z,3.00
2018-09-01T23:14:41.095Z,2.17
2018-09-01T23:17:09.865Z,1.87
2018-09-01T23:19:39.599Z,1.97
2018-09-01T23:22:08.380Z,1.63
2018-09-01T23:24:37.027Z,1.70
2018-09-01T23:29:56.569Z,1.30
2018-09-01T23:32:25.380Z,1.50
2018-09-01T23:34:54.336Z,1.40
2018-09-01T23:37:31.080Z,2.73
2018-09-01T23:39:59.667Z,2.60
2018-09-01T23:42:29.187Z,1.23
2018-09-01T23:44:57.865Z,1.30
2018-09-01T23:47:27.441Z,2.10
2018-09-01T23:49:59.555Z,1.77
2018-09-01T23:52:28.903Z,0.70
2018-09-01T23:54:57.717Z,1.80
2018-09-01T23:57:27.221Z,0.90
2018-09-01T23:59:55.943Z,1.17
